createdAt,value
2023-03-08T00:12:31.484Z,49.605
2023-03-08T00:27:34.014Z,49.001
2023-03-08T00:42:36.924Z,49.45
2023-03-08T00:57:39.201Z,52.733
2023-03-08T01:12:41.584Z,51.241
2023-03-08T01:27:43.961Z,51.394
2023-03-08T01:42:46.300Z,52.505
2023-03-08T01:57:48.731Z,52.023
2023-03-08T02:12:51.067Z,52.823
2023-03-08T02:27:53.450Z,52.982
2023-03-08T02:42:55.854Z,52.941
2023-03-08T02:57:58.247Z,54.328
2023-03-08T03:13:00.676Z,55.842
2023-03-08T03:28:03.037Z,55.319
2023-03-08T03:43:05.507Z,56.188
2023-03-08T03:58:07.826Z,57.085
2023-03-08T04:13:10.215Z,57.509
2023-03-08T04:28:12.731Z,58.837
2023-03-08T04:43:15.042Z,58.18
2023-03-08T04:58:17.346Z,57.116
2023-03-08T05:13:19.719Z,58.746
2023-03-08T05:28:22.078Z,57.397
2023-03-08T05:43:24.455Z,57.328
2023-03-08T05:58:26.753Z,58.774
2023-03-08T06:13:29.076Z,59.121
2023-03-08T06:28:31.636Z,58.253
2023-03-08T06:43:33.986Z,57.756
2023-03-08T06:58:36.370Z,57.758
2023-03-08T07:13:38.732Z,58.821
2023-03-08T07:28:41.057Z,58.076
2023-03-08T07:58:56.680Z,59.139
2023-03-08T08:14:01.278Z,59.032
2023-03-08T08:29:06.100Z,60.38
2023-03-08T08:44:11.714Z,60.136
2023-03-08T08:59:16.524Z,61.976
2023-03-08T09:14:21.026Z,60.961
2023-03-08T09:29:25.570Z,61.389
2023-03-08T09:44:30.050Z,61.953
2023-03-08T09:59:34.373Z,64.012
2023-03-08T10:14:38.738Z,62.308
2023-03-08T10:29:43.135Z,62.878
2023-03-08T10:44:47.601Z,63.672
2023-03-08T10:59:52.016Z,62.289
2023-03-08T11:14:56.585Z,62.863
2023-03-08T11:30:01.021Z,63.918
2023-03-08T11:45:05.428Z,63.413
2023-03-08T12:00:09.859Z,63.569
2023-03-08T12:15:14.236Z,65.13
2023-03-08T12:30:18.578Z,66.218
2023-03-08T12:45:22.969Z,64.745
2023-03-08T13:00:27.486Z,65.204
2023-03-08T13:15:31.964Z,64.958
2023-03-08T13:30:36.405Z,64.01
2023-03-08T13:45:40.874Z,64.211
2023-03-08T14:00:45.314Z,63.857
2023-03-08T14:15:49.831Z,63.9
2023-03-08T14:30:54.376Z,63.259
2023-03-08T14:45:58.805Z,64.554
2023-03-08T15:01:03.145Z,62.879
2023-03-08T15:16:07.987Z,62.436
2023-03-08T15:31:12.576Z,56.085
2023-03-08T15:46:17.190Z,56.589
2023-03-08T16:01:21.661Z,58.762
2023-03-08T16:16:38.492Z,55.189
2023-03-08T16:31:48.841Z,45.126
2023-03-08T16:46:53.329Z,49.554
2023-03-08T17:01:57.715Z,40.854
2023-03-08T17:17:02.300Z,53.742
2023-03-08T17:32:06.849Z,57.613
2023-03-08T17:47:11.288Z,57.008
2023-03-08T18:02:15.897Z,59.934
2023-03-08T18:17:18.193Z,58.599
2023-03-08T18:32:20.456Z,57.095
2023-03-08T18:47:22.775Z,55.133
2023-03-08T19:02:27.594Z,54.675
2023-03-08T19:17:31.047Z,55.281
2023-03-08T19:32:33.359Z,55.133
2023-03-08T19:47:35.714Z,53.983
2023-03-08T20:02:37.938Z,52.612
2023-03-08T20:17:40.180Z,54.343
2023-03-08T20:32:42.496Z,52.432
2023-03-08T20:47:45.202Z,51.708
2023-03-08T21:02:47.549Z,51.251
2023-03-08T21:17:49.770Z,50.315
2023-03-08T21:32:51.994Z,52.353
2023-03-08T21:47:54.300Z,52.267
2023-03-08T22:02:56.612Z,51.923
2023-03-08T22:17:58.906Z,51.397
2023-03-08T22:33:01.231Z,52.528
2023-03-08T22:48:03.418Z,51.719
2023-03-08T23:03:05.728Z,51.825
2023-03-08T23:18:08.024Z,50.085
2023-03-08T23:33:10.347Z,49.333
2023-03-08T23:48:12.588Z,48.716
